TAF Text Data
IDs:
Format:
Raw Decoded Include METAR

Data at: 0022 UTC 30 May 2020

METAR for:EGGP (Liverpool/Lennon Arp, EN, UK)
Text:No data found

TAF for:EGGP (Liverpool/Lennon Arp, EN, UK) issued at 2302 UTC 29 May 2020
Text:TAF EGGP 292302Z 3000/3024 10009KT CAVOK
Forecast period:0000 UTC 30 May 2020 to 0000 UTC 31 May 2020
Forecast type:FROM: standard forecast or significant change
Winds:from the E (100 degrees) at 10 MPH (9 knots; 4.6 m/s)
Visibility:6 or more sm (10+ km)
Clouds:missing
Weather:NSW (no significant weather)